Pearl Of Scandinavia — OWFU2 — position and weather

sailwx.info

Track history (hours):
 
Tides and Currents Weather Stations Pressure Air Temp Water Temp Dewpoint Dewpoint Depression Visibility Wind Speed Wind Dir Waves Ship Positions

Pearl Of Scandinavia

Last reported at 2020-Sep-18 06:59 UTC. Time now 2020-Sep-18 07:02 UTC.
Position N 55°42' E 012°36'.

Length 176.4 m; beam 34 m; draft 6.215 m.

Type: Ship. MMSI: 219945000.

Date/timePositionNaut miles runAvg speedWind from/ knotsBaromVisibWave heightAir tempDewpointWater temp
2020-Sep-18 06:59N 55°42' E 012°36'2311.6
2020-Sep-18 05:00N 56°05' E 012°35'3618.1
2020-Sep-18 03:00N 56°34' E 011°57'2919.1
2020-Sep-18 01:30N 57°02' E 011°42'1018.8
2020-Sep-18 01:00N 57°11' E 011°35'53 9.6
2020-Sep-17 19:31N 57°56' E 010°46'3815.3
2020-Sep-17 17:00N 58°35' E 010°42'2415.9
2020-Sep-17 15:30N 58°58' E 010°41'1717.2
2020-Sep-17 14:31N 59°15' E 010°37'3915.5
2020-Sep-17 12:00N 59°54' E 010°44'0 0.1
2020-Sep-17 08:00N 59°54' E 010°45'0 0.0
2020-Sep-17 07:30N 59°54' E 010°45'0 0.1
2020-Sep-17 07:00N 59°54' E 010°45'5 9.7
2020-Sep-17 06:30N 59°51' E 010°37'5117.0
2020-Sep-17 03:31N 59°00' E 010°40'918.3
2020-Sep-17 03:00N 58°51' E 010°42'2818.6
2020-Sep-17 01:30N 58°23' E 010°45'918.5
2020-Sep-17 01:00N 58°14' E 010°46'917.8
2020-Sep-17 00:30N 58°05' E 010°47'917.8
2020-Sep-17 00:01N 57°56' E 010°48'38 7.0
2020-Sep-16 18:31N 57°26' E 011°32'918.4
2020-Sep-16 18:01N 57°19' E 011°44'10116.8
2020-Sep-16 12:00N 55°43' E 012°37'1 0.2
2020-Sep-16 06:58N 55°42' E 012°36'2211.1
2020-Sep-16 05:00N 56°04' E 012°38'815.5
2020-Sep-16 04:30N 56°09' E 012°27'715.0
2020-Sep-16 04:00N 56°15' E 012°18'1815.9
2020-Sep-16 02:51N 56°30' E 012°01'4917.3
2020-Sep-16 00:00N 57°16' E 011°30'917.7
2020-Sep-15 23:30N 57°24' E 011°23'1514.8
2020-Sep-15 22:30N 57°27' E 010°56'7 3.5
2020-Sep-15 20:30N 57°30' E 010°45'11617.8
2020-Sep-15 14:00N 59°26' E 010°33'817.0
2020-Sep-15 13:30N 59°34' E 010°37'2013.6
2020-Sep-15 12:00N 59°54' E 010°44'0 0.1
2020-Sep-15 09:27N 59°54' E 010°45'0 0.0
2020-Sep-15 07:27N 59°54' E 010°45'15 7.7
2020-Sep-15 05:30N 59°40' E 010°37'4417.5
2020-Sep-15 03:00N 58°56' E 010°41'1918.8
2020-Sep-15 02:00N 58°37' E 010°43'7114.3
2020-Sep-14 21:00N 57°26' E 010°33'1212.0
2020-Sep-14 20:00N 57°28' E 010°55'11615.5
2020-Sep-14 12:30N 55°48' E 012°43'7 2.6
2020-Sep-14 09:57N 55°42' E 012°36'2 0.6
2020-Sep-14 06:30N 55°43' E 012°39'1515.2
2020-Sep-14 05:30N 55°59' E 012°40'816.1
2020-Sep-14 05:00N 56°06' E 012°34'2317.3
2020-Sep-14 03:40N 56°24' E 012°07'1017.8
2020-Sep-14 03:07N 56°32' E 011°59'1017.6
2020-Sep-14 02:33N 56°42' E 011°54'718.1
2020-Sep-14 02:11N 56°48' E 011°50'2618.3
2020-Sep-14 00:45N 57°13' E 011°35'3214.1
2020-Sep-13 22:30N 57°25' E 010°41'4 7.2
2020-Sep-13 21:53N 57°26' E 010°33'7 7.9
2020-Sep-13 21:03N 57°29' E 010°44'8116.1
2020-Sep-13 16:00N 58°50' E 010°41'817.1
2020-Sep-13 15:30N 58°58' E 010°40'1717.2
2020-Sep-13 14:30N 59°16' E 010°37'1717.0
2020-Sep-13 13:30N 59°33' E 010°36'22 4.8
2020-Sep-13 08:53N 59°54' E 010°45'0 0.0
2020-Sep-13 08:26N 59°54' E 010°45'24 7.0
2020-Sep-13 05:00N 59°30' E 010°36'917.3
2020-Sep-13 04:30N 59°22' E 010°35'918.1
2020-Sep-13 04:00N 59°13' E 010°38'3417.1
2020-Sep-13 02:00N 58°39' E 010°43'4317.4
2020-Sep-12 23:30N 57°55' E 010°48'3012.2
2020-Sep-12 21:00N 57°26' E 010°33'1811.8
2020-Sep-12 19:31N 57°30' E 011°05'3216.1
2020-Sep-12 17:31N 57°12' E 011°55'9311.9
2020-Sep-12 09:45N 55°42' E 012°36'4 1.3
2020-Sep-12 06:31N 55°45' E 012°41'2415.9
2020-Sep-12 05:00N 56°08' E 012°28'917.6
2020-Sep-12 04:30N 56°15' E 012°18'5717.8
2020-Sep-12 01:18N 57°07' E 011°37'2418.4
2020-Sep-12 00:00N 57°29' E 011°19'2516.6
2020-Sep-11 22:30N 57°26' E 010°33'3810.8
2020-Sep-11 19:00N 58°03' E 010°45'11113.7
2020-Sep-11 10:53N 59°54' E 010°45'0 0.0
2020-Sep-11 08:51N 59°54' E 010°45'0 0.0
2020-Sep-11 08:24N 59°54' E 010°45'0 0.0
2020-Sep-11 07:56N 59°54' E 010°45'3 2.1
2020-Sep-11 06:31N 59°53' E 010°39'815.4
2020-Sep-11 06:01N 59°45' E 010°35'3215.7
2020-Sep-11 04:00N 59°14' E 010°38'816.8
2020-Sep-11 03:30N 59°06' E 010°40'7318.2
2020-Sep-10 23:30N 57°53' E 010°48'2617.3
2020-Sep-10 22:00N 57°27' E 010°41'5 5.7
2020-Sep-10 21:13N 57°26' E 010°33'2 4.2
2020-Sep-10 20:49N 57°25' E 010°35'2216.6
2020-Sep-10 19:30N 57°31' E 011°14'11714.5
2020-Sep-10 11:26N 55°42' E 012°36'0 0.0
2020-Sep-10 10:59N 55°42' E 012°36'0 0.0
2020-Sep-10 09:29N 55°42' E 012°36'0 0.0
2020-Sep-10 07:53N 55°42' E 012°36'26 9.0
2020-Sep-10 05:00N 56°08' E 012°30'6717.9
2020-Sep-10 01:16N 57°08' E 011°37'3214.4
2020-Sep-09 23:00N 57°26' E 010°47'29 8.2
2020-Sep-09 19:30N 57°55' E 010°46'2416.1
2020-Sep-09 18:00N 58°19' E 010°43'714.8
2020-Sep-09 17:30N 58°26' E 010°42'2416.0
2020-Sep-09 16:00N 58°50' E 010°40'5117.1
2020-Sep-09 13:00N 59°42' E 010°36'13 6.6
2020-Sep-09 10:58N 59°54' E 010°45'0 0.0
2020-Sep-09 09:28N 59°54' E 010°45'0 0.0
2020-Sep-09 08:58N 59°54' E 010°45'0 0.0
2020-Sep-09 07:58N 59°54' E 010°45'0 0.0
2020-Sep-09 07:00N 59°54' E 010°45'1212.1
2020-Sep-09 06:00N 59°43' E 010°35'5618.5
2020-Sep-09 03:00N 58°47' E 010°42'1919.1
2020-Sep-09 02:00N 58°28' E 010°44'1616.5
2020-Sep-09 01:00N 58°12' E 010°46'816.4
2020-Sep-09 00:31N 58°04' E 010°47'1515.4
2020-Sep-08 23:31N 57°48' E 010°48'28 6.2
2020-Sep-08 19:00N 57°30' E 011°27'9517.2
2020-Sep-08 13:30N 56°04' E 012°38'815.3
2020-Sep-08 13:00N 55°57' E 012°43'15 3.7
2020-Sep-08 08:58N 55°42' E 012°36'0 0.0
2020-Sep-08 07:58N 55°42' E 012°36'  
Track history (hours):
 
Tides and Currents Weather Stations Pressure Air Temp Water Temp Dewpoint Dewpoint Depression Visibility Wind Speed Wind Dir Waves Ship Positions

Pearl Of Scandinavia

Last reported at 2020-Sep-18 06:59 UTC. Time now 2020-Sep-18 07:02 UTC.
Position N 55°42' E 012°36'.

Length 176.4 m; beam 34 m; draft 6.215 m.

Type: Ship. MMSI: 219945000.

Date/timePositionNaut miles runAvg speedWind from/ knotsBaromVisibWave heightAir tempDewpointWater temp
2020-Sep-18 06:59N 55°42' E 012°36'2311.6
2020-Sep-18 05:00N 56°05' E 012°35'3618.1
2020-Sep-18 03:00N 56°34' E 011°57'2919.1
2020-Sep-18 01:30N 57°02' E 011°42'1018.8
2020-Sep-18 01:00N 57°11' E 011°35'53 9.6
2020-Sep-17 19:31N 57°56' E 010°46'3815.3
2020-Sep-17 17:00N 58°35' E 010°42'2415.9
2020-Sep-17 15:30N 58°58' E 010°41'1717.2
2020-Sep-17 14:31N 59°15' E 010°37'3915.5
2020-Sep-17 12:00N 59°54' E 010°44'0 0.1
2020-Sep-17 08:00N 59°54' E 010°45'0 0.0
2020-Sep-17 07:30N 59°54' E 010°45'0 0.1
2020-Sep-17 07:00N 59°54' E 010°45'5 9.7
2020-Sep-17 06:30N 59°51' E 010°37'5117.0
2020-Sep-17 03:31N 59°00' E 010°40'918.3
2020-Sep-17 03:00N 58°51' E 010°42'2818.6
2020-Sep-17 01:30N 58°23' E 010°45'918.5
2020-Sep-17 01:00N 58°14' E 010°46'917.8
2020-Sep-17 00:30N 58°05' E 010°47'917.8
2020-Sep-17 00:01N 57°56' E 010°48'38 7.0
2020-Sep-16 18:31N 57°26' E 011°32'918.4
2020-Sep-16 18:01N 57°19' E 011°44'10116.8
2020-Sep-16 12:00N 55°43' E 012°37'1 0.2
2020-Sep-16 06:58N 55°42' E 012°36'2211.1
2020-Sep-16 05:00N 56°04' E 012°38'815.5
2020-Sep-16 04:30N 56°09' E 012°27'715.0
2020-Sep-16 04:00N 56°15' E 012°18'1815.9
2020-Sep-16 02:51N 56°30' E 012°01'4917.3
2020-Sep-16 00:00N 57°16' E 011°30'917.7
2020-Sep-15 23:30N 57°24' E 011°23'1514.8
2020-Sep-15 22:30N 57°27' E 010°56'7 3.5
2020-Sep-15 20:30N 57°30' E 010°45'11617.8
2020-Sep-15 14:00N 59°26' E 010°33'817.0
2020-Sep-15 13:30N 59°34' E 010°37'2013.6
2020-Sep-15 12:00N 59°54' E 010°44'0 0.1
2020-Sep-15 09:27N 59°54' E 010°45'0 0.0
2020-Sep-15 07:27N 59°54' E 010°45'15 7.7
2020-Sep-15 05:30N 59°40' E 010°37'4417.5
2020-Sep-15 03:00N 58°56' E 010°41'1918.8
2020-Sep-15 02:00N 58°37' E 010°43'7114.3
2020-Sep-14 21:00N 57°26' E 010°33'1212.0
2020-Sep-14 20:00N 57°28' E 010°55'11615.5
2020-Sep-14 12:30N 55°48' E 012°43'7 2.6
2020-Sep-14 09:57N 55°42' E 012°36'2 0.6
2020-Sep-14 06:30N 55°43' E 012°39'1515.2
2020-Sep-14 05:30N 55°59' E 012°40'816.1
2020-Sep-14 05:00N 56°06' E 012°34'2317.3
2020-Sep-14 03:40N 56°24' E 012°07'1017.8
2020-Sep-14 03:07N 56°32' E 011°59'1017.6
2020-Sep-14 02:33N 56°42' E 011°54'718.1
2020-Sep-14 02:11N 56°48' E 011°50'2618.3
2020-Sep-14 00:45N 57°13' E 011°35'3214.1
2020-Sep-13 22:30N 57°25' E 010°41'4 7.2
2020-Sep-13 21:53N 57°26' E 010°33'7 7.9
2020-Sep-13 21:03N 57°29' E 010°44'8116.1
2020-Sep-13 16:00N 58°50' E 010°41'817.1
2020-Sep-13 15:30N 58°58' E 010°40'1717.2
2020-Sep-13 14:30N 59°16' E 010°37'1717.0
2020-Sep-13 13:30N 59°33' E 010°36'22 4.8
2020-Sep-13 08:53N 59°54' E 010°45'0 0.0
2020-Sep-13 08:26N 59°54' E 010°45'24 7.0
2020-Sep-13 05:00N 59°30' E 010°36'917.3
2020-Sep-13 04:30N 59°22' E 010°35'918.1
2020-Sep-13 04:00N 59°13' E 010°38'3417.1
2020-Sep-13 02:00N 58°39' E 010°43'4317.4
2020-Sep-12 23:30N 57°55' E 010°48'3012.2
2020-Sep-12 21:00N 57°26' E 010°33'1811.8
2020-Sep-12 19:31N 57°30' E 011°05'3216.1
2020-Sep-12 17:31N 57°12' E 011°55'9311.9
2020-Sep-12 09:45N 55°42' E 012°36'4 1.3
2020-Sep-12 06:31N 55°45' E 012°41'2415.9
2020-Sep-12 05:00N 56°08' E 012°28'917.6
2020-Sep-12 04:30N 56°15' E 012°18'5717.8
2020-Sep-12 01:18N 57°07' E 011°37'2418.4
2020-Sep-12 00:00N 57°29' E 011°19'2516.6
2020-Sep-11 22:30N 57°26' E 010°33'3810.8
2020-Sep-11 19:00N 58°03' E 010°45'11113.7
2020-Sep-11 10:53N 59°54' E 010°45'0 0.0
2020-Sep-11 08:51N 59°54' E 010°45'0 0.0
2020-Sep-11 08:24N 59°54' E 010°45'0 0.0
2020-Sep-11 07:56N 59°54' E 010°45'3 2.1
2020-Sep-11 06:31N 59°53' E 010°39'815.4
2020-Sep-11 06:01N 59°45' E 010°35'3215.7
2020-Sep-11 04:00N 59°14' E 010°38'816.8
2020-Sep-11 03:30N 59°06' E 010°40'7318.2
2020-Sep-10 23:30N 57°53' E 010°48'2617.3
2020-Sep-10 22:00N 57°27' E 010°41'5 5.7
2020-Sep-10 21:13N 57°26' E 010°33'2 4.2
2020-Sep-10 20:49N 57°25' E 010°35'2216.6
2020-Sep-10 19:30N 57°31' E 011°14'11714.5
2020-Sep-10 11:26N 55°42' E 012°36'0 0.0
2020-Sep-10 10:59N 55°42' E 012°36'0 0.0
2020-Sep-10 09:29N 55°42' E 012°36'0 0.0
2020-Sep-10 07:53N 55°42' E 012°36'26 9.0
2020-Sep-10 05:00N 56°08' E 012°30'6717.9
2020-Sep-10 01:16N 57°08' E 011°37'3214.4
2020-Sep-09 23:00N 57°26' E 010°47'29 8.2
2020-Sep-09 19:30N 57°55' E 010°46'2416.1
2020-Sep-09 18:00N 58°19' E 010°43'714.8
2020-Sep-09 17:30N 58°26' E 010°42'2416.0
2020-Sep-09 16:00N 58°50' E 010°40'5117.1
2020-Sep-09 13:00N 59°42' E 010°36'13 6.6
2020-Sep-09 10:58N 59°54' E 010°45'0 0.0
2020-Sep-09 09:28N 59°54' E 010°45'0 0.0
2020-Sep-09 08:58N 59°54' E 010°45'0 0.0
2020-Sep-09 07:58N 59°54' E 010°45'0 0.0
2020-Sep-09 07:00N 59°54' E 010°45'1212.1
2020-Sep-09 06:00N 59°43' E 010°35'5618.5
2020-Sep-09 03:00N 58°47' E 010°42'1919.1
2020-Sep-09 02:00N 58°28' E 010°44'1616.5
2020-Sep-09 01:00N 58°12' E 010°46'816.4
2020-Sep-09 00:31N 58°04' E 010°47'1515.4
2020-Sep-08 23:31N 57°48' E 010°48'28 6.2
2020-Sep-08 19:00N 57°30' E 011°27'9517.2
2020-Sep-08 13:30N 56°04' E 012°38'815.3
2020-Sep-08 13:00N 55°57' E 012°43'15 3.7
2020-Sep-08 08:58N 55°42' E 012°36'0 0.0
2020-Sep-08 07:58N 55°42' E 012°36'  

Dump ship's entire track history